Time;durP1;ratioP1;P1;durP2;ratioP2;P2;SDS_P1;SDS_P2;PMS_P1;PMS_P2;Temp;Humidity;BMP_temperature;BMP_pressure;BME280_temperature;BME280_humidity;BME280_pressure;Samples;Min_cycle;Max_cycle;Signal;HPM_P1;HPM_P2
2023/08/24 00:02:27;;;;;;;11.40;5.20;;;;;;;;;;103637;1292;547950;-81
2023/08/24 00:06:05;;;;;;;13.80;5.50;;;;;;;;;;103644;1289;547959;-81
2023/08/24 00:09:43;;;;;;;11.40;5.00;;;;;;;;;;103338;1294;547955;-79
2023/08/24 00:13:19;;;;;;;11.80;4.60;;;;;;;;;;103585;1292;547947;-81
2023/08/24 00:16:51;;;;;;;9.10;5.30;;;;;;;;;;103661;1295;544953;-81
2023/08/24 00:20:34;;;;;;;11.50;4.80;;;;;;;;;;103601;1292;549259;-80
2023/08/24 00:24:08;;;;;;;10.30;4.80;;;;;;;;;;103870;1289;548153;-81
2023/08/24 00:27:49;;;;;;;9.00;4.40;;;;;;;;;;103554;1292;548587;-81
2023/08/24 00:31:23;;;;;;;10.10;4.90;;;;;;;;;;103781;1290;547939;-81
2023/08/24 00:35:08;;;;;;;9.30;4.30;;;;;;;;;;103684;1292;547883;-79
2023/08/24 00:38:43;;;;;;;9.00;4.00;;;;;;;;;;103651;1291;547791;-81
2023/08/24 00:42:16;;;;;;;8.30;3.80;;;;;;;;;;103645;1288;547955;-82
2023/08/24 00:45:51;;;;;;;6.20;2.80;;;;;;;;;;104725;1283;545174;-82
2023/08/24 00:49:34;;;;;;;7.40;3.70;;;;;;;;;;103657;1291;547983;-82
2023/08/24 00:53:12;;;;;;;7.40;3.00;;;;;;;;;;103684;1295;547976;-81
2023/08/24 00:56:49;;;;;;;6.40;2.90;;;;;;;;;;103780;1289;548408;-79
2023/08/24 01:00:27;;;;;;;6.60;3.40;;;;;;;;;;103309;1294;548108;-82
2023/08/24 01:04:04;;;;;;;8.90;3.50;;;;;;;;;;103528;1292;547923;-79
2023/08/24 01:07:42;;;;;;;7.10;3.20;;;;;;;;;;103868;1289;546595;-81
2023/08/24 01:11:19;;;;;;;6.60;3.20;;;;;;;;;;103561;1292;548067;-81
2023/08/24 01:15:00;;;;;;;7.10;2.80;;;;;;;;;;103451;1291;548031;-80
2023/08/24 01:18:36;;;;;;;7.20;2.80;;;;;;;;;;103875;1291;546290;-81
2023/08/24 01:22:32;;;;;;;10.40;3.20;;;;;;;;;;103239;1295;547995;-81
2023/08/24 01:25:53;;;;;;;6.10;2.80;;;;;;;;;;103638;1292;547836;-81
2023/08/24 01:29:27;;;;;;;6.50;3.20;;;;;;;;;;103567;1298;547849;-81
2023/08/24 01:33:04;;;;;;;6.00;2.70;;;;;;;;;;103810;1288;546505;-82
2023/08/24 01:36:43;;;;;;;7.20;2.90;;;;;;;;;;103669;1294;547822;-81
2023/08/24 01:40:26;;;;;;;7.50;3.10;;;;;;;;;;103686;1289;548385;-83
2023/08/24 01:43:54;;;;;;;7.80;3.00;;;;;;;;;;103635;1289;548923;-80
2023/08/24 01:47:35;;;;;;;7.30;3.20;;;;;;;;;;103608;1292;548062;-83
2023/08/24 01:51:10;;;;;;;8.10;2.80;;;;;;;;;;103779;1289;547806;-81
2023/08/24 01:54:48;;;;;;;12.00;3.00;;;;;;;;;;103982;1289;548227;-81
2023/08/24 01:58:20;;;;;;;7.00;3.20;;;;;;;;;;103533;1298;545034;-81
2023/08/24 02:01:58;;;;;;;8.40;2.90;;;;;;;;;;103731;1292;545953;-79
2023/08/24 02:05:41;;;;;;;6.30;2.80;;;;;;;;;;103605;1289;548147;-80
2023/08/24 02:09:18;;;;;;;5.90;2.50;;;;;;;;;;103315;1295;548164;-80
2023/08/24 02:12:56;;;;;;;6.60;3.10;;;;;;;;;;103304;1298;547961;-81
2023/08/24 02:16:33;;;;;;;6.60;3.10;;;;;;;;;;103997;1289;547817;-80
2023/08/24 02:20:11;;;;;;;7.70;3.40;;;;;;;;;;103661;1290;547786;-80
2023/08/24 02:23:48;;;;;;;8.00;2.80;;;;;;;;;;103554;1292;548153;-80
2023/08/24 02:27:26;;;;;;;7.00;3.20;;;;;;;;;;103959;1287;548131;-78
2023/08/24 02:31:04;;;;;;;7.80;3.00;;;;;;;;;;103561;1291;548016;-80
2023/08/24 02:34:41;;;;;;;6.90;3.10;;;;;;;;;;103877;1289;548369;-79
2023/08/24 02:38:14;;;;;;;6.70;3.10;;;;;;;;;;103666;1292;548117;-80
2023/08/24 02:41:56;;;;;;;6.90;3.20;;;;;;;;;;103556;1292;548113;-80
2023/08/24 02:45:33;;;;;;;8.00;2.90;;;;;;;;;;103623;1290;547763;-81
2023/08/24 02:49:05;;;;;;;7.80;2.90;;;;;;;;;;103846;1289;545735;-81
2023/08/24 02:52:48;;;;;;;7.10;2.90;;;;;;;;;;103617;1295;548122;-82
2023/08/24 02:56:25;;;;;;;6.20;2.90;;;;;;;;;;103450;1291;548028;-82
2023/08/24 03:00:05;;;;;;;6.30;3.20;;;;;;;;;;103625;1294;548004;-82
2023/08/24 03:03:40;;;;;;;6.50;2.90;;;;;;;;;;103948;1292;548120;-81
2023/08/24 03:07:18;;;;;;;5.20;2.70;;;;;;;;;;103553;1292;547913;-80
2023/08/24 03:10:55;;;;;;;9.40;3.20;;;;;;;;;;103454;1297;547824;-81
2023/08/24 03:14:33;;;;;;;7.50;3.30;;;;;;;;;;103568;1292;548077;-79
2023/08/24 03:18:11;;;;;;;7.40;3.10;;;;;;;;;;103459;1291;547838;-81
2023/08/24 03:21:48;;;;;;;6.70;2.80;;;;;;;;;;103651;1292;548160;-80
2023/08/24 03:25:26;;;;;;;7.30;3.20;;;;;;;;;;103642;1289;547989;-81
2023/08/24 03:29:03;;;;;;;8.20;3.20;;;;;;;;;;103605;1292;547940;-81
2023/08/24 03:32:41;;;;;;;9.30;3.50;;;;;;;;;;103498;1294;547845;-81
2023/08/24 03:36:14;;;;;;;11.40;3.80;;;;;;;;;;103962;1289;547783;-81
2023/08/24 03:39:55;;;;;;;7.80;3.40;;;;;;;;;;103637;1290;547989;-79
2023/08/24 03:43:34;;;;;;;7.60;3.20;;;;;;;;;;103640;1295;548177;-81
2023/08/24 03:47:10;;;;;;;10.40;3.40;;;;;;;;;;103449;1291;547902;-81
2023/08/24 03:50:47;;;;;;;9.10;3.40;;;;;;;;;;103653;1291;547999;-81
2023/08/24 03:54:25;;;;;;;6.30;2.80;;;;;;;;;;103764;1289;548274;-81
2023/08/24 03:58:03;;;;;;;6.00;3.10;;;;;;;;;;103704;1292;547963;-81
2023/08/24 04:01:40;;;;;;;9.00;3.90;;;;;;;;;;103468;1292;547828;-81
2023/08/24 04:05:17;;;;;;;7.40;3.50;;;;;;;;;;103727;1289;548015;-81
2023/08/24 04:08:55;;;;;;;9.10;3.60;;;;;;;;;;103732;1292;547963;-81
2023/08/24 04:12:32;;;;;;;13.30;3.80;;;;;;;;;;103645;1292;548107;-81
2023/08/24 04:16:10;;;;;;;17.10;4.30;;;;;;;;;;103488;1292;548006;-81
2023/08/24 04:19:47;;;;;;;15.20;4.00;;;;;;;;;;104666;1282;548542;-80
2023/08/24 04:23:26;;;;;;;15.40;4.10;;;;;;;;;;103489;1295;548142;-82
2023/08/24 04:27:02;;;;;;;11.70;3.80;;;;;;;;;;103743;1292;548433;-80
2023/08/24 04:30:40;;;;;;;12.30;3.70;;;;;;;;;;103479;1291;548125;-81
2023/08/24 04:34:13;;;;;;;10.40;3.80;;;;;;;;;;103560;1291;548023;-79
2023/08/24 04:37:55;;;;;;;13.00;4.00;;;;;;;;;;103554;1292;548181;-79
2023/08/24 04:41:32;;;;;;;10.40;4.10;;;;;;;;;;103710;1291;547836;-81
2023/08/24 04:45:09;;;;;;;13.00;3.80;;;;;;;;;;103635;1292;548215;-80
2023/08/24 04:48:48;;;;;;;8.60;3.40;;;;;;;;;;103647;1291;547999;-81
2023/08/24 04:52:25;;;;;;;10.20;4.20;;;;;;;;;;103545;1291;547974;-81
2023/08/24 04:56:02;;;;;;;10.10;4.00;;;;;;;;;;103760;1292;547951;-79
2023/08/24 04:59:39;;;;;;;12.90;4.70;;;;;;;;;;103660;1289;547953;-81
2023/08/24 05:03:17;;;;;;;14.90;4.30;;;;;;;;;;103599;1290;547811;-82
2023/08/24 05:06:54;;;;;;;17.20;4.30;;;;;;;;;;103800;1288;547933;-80
2023/08/24 05:10:33;;;;;;;16.00;4.10;;;;;;;;;;103645;1291;549327;-80
2023/08/24 05:14:09;;;;;;;16.40;4.60;;;;;;;;;;103694;1291;547886;-79
2023/08/24 05:17:46;;;;;;;12.70;3.70;;;;;;;;;;103669;1289;548590;-81
2023/08/24 05:21:24;;;;;;;11.60;3.50;;;;;;;;;;103637;1291;547989;-80
2023/08/24 05:25:01;;;;;;;15.10;4.30;;;;;;;;;;103690;1290;547940;-80
2023/08/24 05:28:39;;;;;;;21.50;4.90;;;;;;;;;;103742;1292;548240;-82
2023/08/24 05:32:16;;;;;;;22.10;5.30;;;;;;;;;;103775;1288;548160;-79
2023/08/24 05:35:54;;;;;;;15.80;4.50;;;;;;;;;;103651;1291;549174;-82
2023/08/24 05:39:34;;;;;;;17.70;4.10;;;;;;;;;;103608;1290;545591;-82
2023/08/24 05:43:09;;;;;;;18.20;3.80;;;;;;;;;;103609;1290;547851;-81
2023/08/24 05:46:46;;;;;;;21.20;4.40;;;;;;;;;;103558;1295;548075;-81
2023/08/24 05:50:24;;;;;;;18.40;4.20;;;;;;;;;;103697;1293;548166;-79
2023/08/24 05:54:01;;;;;;;15.50;3.80;;;;;;;;;;103672;1289;547817;-80
2023/08/24 05:57:39;;;;;;;18.20;4.10;;;;;;;;;;103282;1295;548021;-81
2023/08/24 06:01:16;;;;;;;15.00;3.90;;;;;;;;;;103520;1292;547962;-80
2023/08/24 06:04:54;;;;;;;15.40;4.40;;;;;;;;;;103729;1289;547875;-79
2023/08/24 06:08:31;;;;;;;17.40;4.00;;;;;;;;;;103683;1301;548234;-81
2023/08/24 06:12:09;;;;;;;15.20;3.30;;;;;;;;;;103556;1292;547926;-81
2023/08/24 06:15:46;;;;;;;17.80;4.20;;;;;;;;;;104181;1283;548049;-79
2023/08/24 06:19:23;;;;;;;21.30;4.40;;;;;;;;;;103338;1298;547961;-80
2023/08/24 06:23:02;;;;;;;17.70;4.20;;;;;;;;;;103641;1295;547811;-79
2023/08/24 06:26:39;;;;;;;15.00;4.10;;;;;;;;;;103368;1294;547775;-79
2023/08/24 06:30:12;;;;;;;15.30;4.30;;;;;;;;;;103701;1292;548150;-80
2023/08/24 06:33:53;;;;;;;25.30;4.90;;;;;;;;;;103514;1291;547990;-80
2023/08/24 06:37:31;;;;;;;17.50;4.50;;;;;;;;;;103638;1290;547766;-79
2023/08/24 06:41:11;;;;;;;25.30;4.90;;;;;;;;;;103493;1291;547908;-79
2023/08/24 06:44:49;;;;;;;16.30;3.50;;;;;;;;;;103836;1290;548001;-79
2023/08/24 06:48:23;;;;;;;25.60;4.00;;;;;;;;;;103581;1290;548372;-80
2023/08/24 06:52:01;;;;;;;19.20;3.10;;;;;;;;;;103666;1292;548160;-78
2023/08/24 06:55:32;;;;;;;18.10;4.20;;;;;;;;;;103682;1292;545016;-79
2023/08/24 06:59:15;;;;;;;21.50;4.10;;;;;;;;;;103549;1292;548042;-80
2023/08/24 07:02:53;;;;;;;16.50;3.80;;;;;;;;;;103425;1297;547767;-80
2023/08/24 07:06:32;;;;;;;9.30;2.60;;;;;;;;;;103651;1292;548639;-77
2023/08/24 07:10:08;;;;;;;6.50;2.30;;;;;;;;;;103637;1291;548151;-77
2023/08/24 07:13:46;;;;;;;6.50;2.20;;;;;;;;;;103348;1297;547941;-76
2023/08/24 07:17:18;;;;;;;7.20;2.20;;;;;;;;;;103707;1294;545470;-77
2023/08/24 07:20:55;;;;;;;6.50;2.00;;;;;;;;;;103760;1291;545886;-77
2023/08/24 07:24:33;;;;;;;11.60;2.60;;;;;;;;;;103799;1293;544735;-79
2023/08/24 07:28:15;;;;;;;10.60;2.40;;;;;;;;;;103472;1291;548078;-77
2023/08/24 07:31:53;;;;;;;9.70;1.90;;;;;;;;;;103649;1294;548038;-76
2023/08/24 07:35:30;;;;;;;10.40;2.40;;;;;;;;;;103977;1288;548016;-79
2023/08/24 07:39:02;;;;;;;10.10;2.80;;;;;;;;;;103856;1292;545018;-78
2023/08/24 07:42:46;;;;;;;7.00;2.20;;;;;;;;;;103853;1289;545563;-76
2023/08/24 07:46:23;;;;;;;10.50;2.30;;;;;;;;;;103847;1292;548128;-79
2023/08/24 07:49:54;;;;;;;7.70;2.30;;;;;;;;;;103767;1292;544812;-77
2023/08/24 07:53:38;;;;;;;9.20;2.50;;;;;;;;;;103656;1291;548184;-77
2023/08/24 07:57:15;;;;;;;9.30;3.20;;;;;;;;;;103619;1292;548095;-77
2023/08/24 08:00:49;;;;;;;13.50;3.80;;;;;;;;;;103750;1291;545050;-77
2023/08/24 08:04:24;;;;;;;12.30;3.50;;;;;;;;;;103809;1292;544917;-79
2023/08/24 08:08:02;;;;;;;10.80;3.50;;;;;;;;;;104063;1290;545270;-78
2023/08/24 08:11:45;;;;;;;12.60;4.00;;;;;;;;;;103827;1289;548001;-78
2023/08/24 08:15:22;;;;;;;11.00;3.50;;;;;;;;;;103553;1291;547932;-79
2023/08/24 08:18:54;;;;;;;17.60;6.80;;;;;;;;;;103872;1292;545519;-79
2023/08/24 08:22:58;;;;;;;20.00;4.30;;;;;;;;;;103397;1298;547867;-76
2023/08/24 08:26:10;;;;;;;11.20;2.80;;;;;;;;;;103868;1290;544818;-78
2023/08/24 08:29:46;;;;;;;9.20;2.30;;;;;;;;;;103780;1289;545600;-76
2023/08/24 08:33:24;;;;;;;7.50;2.50;;;;;;;;;;103756;1292;544833;-76
2023/08/24 08:37:02;;;;;;;7.20;2.40;;;;;;;;;;103668;1293;544819;-76
2023/08/24 08:40:46;;;;;;;14.00;2.80;;;;;;;;;;103548;1292;548001;-76
2023/08/24 08:44:22;;;;;;;9.70;2.70;;;;;;;;;;103603;1290;548000;-77
2023/08/24 08:48:01;;;;;;;11.80;2.60;;;;;;;;;;103651;1290;547779;-79
2023/08/24 08:51:32;;;;;;;6.20;2.40;;;;;;;;;;103775;1289;544766;-76
2023/08/24 08:55:10;;;;;;;9.10;2.30;;;;;;;;;;104145;1291;544860;-76
2023/08/24 08:58:52;;;;;;;9.30;2.50;;;;;;;;;;104011;1288;547732;-78
2023/08/24 09:02:24;;;;;;;10.50;2.30;;;;;;;;;;103698;1290;545778;-78
2023/08/24 09:06:03;;;;;;;7.80;2.50;;;;;;;;;;103767;1295;545242;-77
2023/08/24 09:09:45;;;;;;;7.90;2.30;;;;;;;;;;103632;1302;547786;-78
2023/08/24 09:13:22;;;;;;;14.20;2.90;;;;;;;;;;103455;1294;547790;-77
2023/08/24 09:16:53;;;;;;;10.70;3.00;;;;;;;;;;103731;1291;544988;-76
2023/08/24 09:20:37;;;;;;;8.50;3.00;;;;;;;;;;103484;1294;548099;-79
2023/08/24 09:24:08;;;;;;;7.30;2.50;;;;;;;;;;103871;1289;545104;-77
2023/08/24 09:27:58;;;;;;;8.20;2.40;;;;;;;;;;103604;1291;547912;-79
2023/08/24 09:31:19;;;;;;;8.90;2.00;;;;;;;;;;103790;1289;544795;-78
2023/08/24 09:35:04;;;;;;;9.10;2.40;;;;;;;;;;103677;1292;545133;-79
2023/08/24 09:38:51;;;;;;;6.50;2.40;;;;;;;;;;103571;1291;547883;-78
2023/08/24 09:42:24;;;;;;;8.40;2.90;;;;;;;;;;103716;1290;544863;-78
2023/08/24 09:45:55;;;;;;;8.80;2.30;;;;;;;;;;104040;1292;546313;-81
2023/08/24 09:49:32;;;;;;;9.70;2.70;;;;;;;;;;103719;1292;544791;-79
2023/08/24 09:53:20;;;;;;;7.40;2.10;;;;;;;;;;103592;1289;548458;-78
2023/08/24 09:56:54;;;;;;;5.80;2.20;;;;;;;;;;103270;1296;548585;-77
2023/08/24 10:00:30;;;;;;;7.20;1.70;;;;;;;;;;103786;1289;547820;-76
2023/08/24 10:04:04;;;;;;;6.00;2.30;;;;;;;;;;103720;1289;545806;-78
2023/08/24 10:07:44;;;;;;;5.90;2.20;;;;;;;;;;103597;1291;548087;-79
2023/08/24 10:11:20;;;;;;;7.50;2.60;;;;;;;;;;104022;1292;545602;-77
2023/08/24 10:15:03;;;;;;;6.80;2.30;;;;;;;;;;104056;1286;548206;-76
2023/08/24 10:18:37;;;;;;;7.70;2.30;;;;;;;;;;103315;1301;547932;-79
2023/08/24 10:22:14;;;;;;;8.50;2.80;;;;;;;;;;103245;1294;547897;-78
2023/08/24 10:25:46;;;;;;;8.10;2.50;;;;;;;;;;103762;1293;545734;-79
2023/08/24 10:29:29;;;;;;;6.90;2.40;;;;;;;;;;103465;1291;548113;-78
2023/08/24 10:33:01;;;;;;;14.30;5.60;;;;;;;;;;103697;1291;544802;-79
2023/08/24 10:36:47;;;;;;;19.50;9.50;;;;;;;;;;104030;1289;548116;-78
2023/08/24 10:40:35;;;;;;;6.90;2.50;;;;;;;;;;103441;1293;548005;-76
2023/08/24 10:44:10;;;;;;;6.70;2.00;;;;;;;;;;103609;1291;548028;-79
2023/08/24 10:47:43;;;;;;;6.50;2.10;;;;;;;;;;103804;1289;544955;-78
2023/08/24 10:51:13;;;;;;;7.00;2.40;;;;;;;;;;103956;1289;544975;-76
2023/08/24 10:55:02;;;;;;;8.10;2.60;;;;;;;;;;103467;1294;548116;-80
2023/08/24 10:58:34;;;;;;;6.10;2.60;;;;;;;;;;103864;1290;544800;-81
2023/08/24 11:02:18;;;;;;;5.90;1.70;;;;;;;;;;103516;1292;548086;-80
2023/08/24 11:05:56;;;;;;;6.70;2.20;;;;;;;;;;103671;1289;548093;-80
2023/08/24 11:09:47;;;;;;;8.60;2.80;;;;;;;;;;103632;1289;547894;-79
2023/08/24 11:13:10;;;;;;;10.30;4.50;;;;;;;;;;103274;1294;548294;-78
2023/08/24 11:16:47;;;;;;;8.30;2.90;;;;;;;;;;103493;1292;546535;-77
2023/08/24 11:20:24;;;;;;;14.90;8.80;;;;;;;;;;104263;1285;548002;-76
2023/08/24 11:24:02;;;;;;;6.60;3.20;;;;;;;;;;103640;1291;547800;-76
2023/08/24 11:27:41;;;;;;;7.80;2.00;;;;;;;;;;103612;1292;548081;-76
2023/08/24 11:31:16;;;;;;;6.20;2.20;;;;;;;;;;103565;1294;547979;-77
2023/08/24 11:34:48;;;;;;;8.00;3.00;;;;;;;;;;103739;1291;545698;-76
2023/08/24 11:38:21;;;;;;;5.30;2.30;;;;;;;;;;103881;1292;545434;-77
2023/08/24 11:42:10;;;;;;;5.80;2.10;;;;;;;;;;103575;1291;548132;-76
2023/08/24 11:45:42;;;;;;;7.00;3.20;;;;;;;;;;103959;1291;544736;-76
2023/08/24 11:49:19;;;;;;;6.60;2.70;;;;;;;;;;103845;1290;544775;-79
2023/08/24 11:53:02;;;;;;;7.80;2.30;;;;;;;;;;103436;1294;547980;-77
2023/08/24 11:56:41;;;;;;;9.60;2.40;;;;;;;;;;104036;1286;545250;-77
2023/08/24 12:00:19;;;;;;;5.20;2.10;;;;;;;;;;103612;1292;548018;-76
2023/08/24 12:03:49;;;;;;;7.30;2.50;;;;;;;;;;103967;1289;545607;-78
2023/08/24 12:07:27;;;;;;;6.40;2.60;;;;;;;;;;103727;1290;545342;-79
2023/08/24 12:11:09;;;;;;;6.20;1.80;;;;;;;;;;104440;1293;544794;-76
2023/08/24 12:14:42;;;;;;;5.10;2.10;;;;;;;;;;103737;1292;544955;-77
2023/08/24 12:18:24;;;;;;;7.00;2.40;;;;;;;;;;103264;1294;547839;-76
2023/08/24 12:22:02;;;;;;;8.00;2.20;;;;;;;;;;103463;1295;545245;-78
2023/08/24 12:25:38;;;;;;;7.50;2.40;;;;;;;;;;104631;1285;545656;-78
2023/08/24 12:29:11;;;;;;;5.10;2.20;;;;;;;;;;104447;1284;545073;-78
2023/08/24 12:32:50;;;;;;;7.10;3.00;;;;;;;;;;103790;1293;545139;-77
2023/08/24 12:36:36;;;;;;;9.10;3.90;;;;;;;;;;103638;1292;547984;-76
2023/08/24 12:40:06;;;;;;;6.90;2.70;;;;;;;;;;103890;1288;544774;-75
2023/08/24 12:43:41;;;;;;;6.80;2.40;;;;;;;;;;103712;1291;544795;-76
2023/08/24 12:47:24;;;;;;;7.60;3.00;;;;;;;;;;103518;1296;547986;-76
2023/08/24 12:51:01;;;;;;;6.60;2.60;;;;;;;;;;103607;1292;547756;-77
2023/08/24 12:54:39;;;;;;;6.70;2.70;;;;;;;;;;103574;1299;547938;-77
2023/08/24 12:58:11;;;;;;;7.10;3.00;;;;;;;;;;103741;1295;545254;-76
2023/08/24 13:01:48;;;;;;;7.90;3.00;;;;;;;;;;103974;1291;544927;-78
2023/08/24 13:05:31;;;;;;;6.60;2.50;;;;;;;;;;103674;1288;548074;-76
2023/08/24 13:09:03;;;;;;;10.30;2.90;;;;;;;;;;104447;1285;544988;-76
2023/08/24 13:12:40;;;;;;;9.20;2.90;;;;;;;;;;103830;1289;544945;-78
2023/08/24 13:16:17;;;;;;;8.10;2.70;;;;;;;;;;103632;1299;544880;-77
2023/08/24 13:19:55;;;;;;;12.50;3.20;;;;;;;;;;103731;1292;545655;-78
2023/08/24 13:23:38;;;;;;;8.30;2.90;;;;;;;;;;103617;1292;548009;-79
2023/08/24 13:27:13;;;;;;;12.30;2.90;;;;;;;;;;104064;1289;545024;-78
2023/08/24 13:30:48;;;;;;;11.80;3.20;;;;;;;;;;104085;1286;545175;-78
2023/08/24 13:34:25;;;;;;;7.70;2.60;;;;;;;;;;103742;1290;545439;-78
2023/08/24 13:38:03;;;;;;;7.70;2.60;;;;;;;;;;103689;1292;544898;-78
2023/08/24 13:41:46;;;;;;;10.60;2.80;;;;;;;;;;103642;1290;547868;-78
2023/08/24 13:45:23;;;;;;;9.30;2.90;;;;;;;;;;103580;1291;548160;-78
2023/08/24 13:48:55;;;;;;;8.50;2.60;;;;;;;;;;103737;1292;545440;-78
2023/08/24 13:52:32;;;;;;;8.70;2.80;;;;;;;;;;103758;1292;544782;-76
2023/08/24 13:56:16;;;;;;;8.50;2.70;;;;;;;;;;103645;1290;548367;-78
2023/08/24 13:59:53;;;;;;;6.20;2.30;;;;;;;;;;103547;1291;547963;-76
2023/08/24 14:03:25;;;;;;;8.10;2.50;;;;;;;;;;103629;1292;545576;-77
2023/08/24 14:07:02;;;;;;;11.60;5.70;;;;;;;;;;103841;1292;545361;-76
2023/08/24 14:10:48;;;;;;;28.20;13.20;;;;;;;;;;103595;1292;547980;-78
2023/08/24 14:14:17;;;;;;;27.40;12.50;;;;;;;;;;104402;1285;545243;-78
2023/08/24 14:17:55;;;;;;;10.60;4.00;;;;;;;;;;103776;1292;544951;-78
2023/08/24 14:21:32;;;;;;;8.70;3.50;;;;;;;;;;103759;1294;544974;-78
2023/08/24 14:25:16;;;;;;;22.10;8.80;;;;;;;;;;103575;1298;548177;-77
2023/08/24 14:28:54;;;;;;;23.10;11.70;;;;;;;;;;103732;1290;544923;-77
2023/08/24 14:32:25;;;;;;;21.00;9.90;;;;;;;;;;104026;1292;546308;-77
2023/08/24 14:36:02;;;;;;;14.70;6.60;;;;;;;;;;103764;1289;545091;-76
2023/08/24 14:39:40;;;;;;;17.20;7.70;;;;;;;;;;103716;1289;544828;-75
2023/08/24 14:43:17;;;;;;;9.00;3.60;;;;;;;;;;103715;1295;545745;-78
2023/08/24 14:46:55;;;;;;;7.50;2.90;;;;;;;;;;104003;1292;544906;-78
2023/08/24 14:50:38;;;;;;;8.80;2.50;;;;;;;;;;103631;1292;547979;-76
2023/08/24 14:54:16;;;;;;;8.30;3.20;;;;;;;;;;103592;1294;548013;-78
2023/08/24 14:57:53;;;;;;;6.70;2.40;;;;;;;;;;103626;1289;547788;-76
2023/08/24 15:01:24;;;;;;;8.40;2.10;;;;;;;;;;103689;1292;545348;-77
2023/08/24 15:05:03;;;;;;;10.30;2.20;;;;;;;;;;103831;1294;544851;-76
2023/08/24 15:08:41;;;;;;;8.10;2.20;;;;;;;;;;103773;1290;545535;-76
2023/08/24 15:12:23;;;;;;;7.20;2.70;;;;;;;;;;103632;1289;548474;-79
2023/08/24 15:16:00;;;;;;;20.30;12.80;;;;;;;;;;104299;1292;549194;-78
2023/08/24 15:19:31;;;;;;;10.10;4.70;;;;;;;;;;103851;1292;545433;-78
2023/08/24 15:23:22;;;;;;;7.10;3.50;;;;;;;;;;103420;1292;547857;-76
2023/08/24 15:26:52;;;;;;;8.10;3.30;;;;;;;;;;103595;1289;547982;-76
2023/08/24 15:30:24;;;;;;;7.50;3.10;;;;;;;;;;104203;1289;545818;-76
2023/08/24 15:34:01;;;;;;;6.90;3.00;;;;;;;;;;103764;1290;544977;-78
2023/08/24 15:37:40;;;;;;;7.50;2.90;;;;;;;;;;103707;1291;545072;-76
2023/08/24 15:41:16;;;;;;;7.50;2.60;;;;;;;;;;103830;1292;544959;-78
2023/08/24 15:44:54;;;;;;;6.80;2.50;;;;;;;;;;103725;1291;544885;-78
2023/08/24 15:48:37;;;;;;;8.80;3.30;;;;;;;;;;103593;1289;548117;-76
2023/08/24 15:52:08;;;;;;;7.50;2.70;;;;;;;;;;103749;1289;545627;-78
2023/08/24 15:55:46;;;;;;;7.50;3.00;;;;;;;;;;103907;1295;545026;-76
2023/08/24 15:59:30;;;;;;;6.50;3.50;;;;;;;;;;103448;1291;548008;-76
2023/08/24 16:03:01;;;;;;;5.90;2.90;;;;;;;;;;103999;1289;545439;-78
2023/08/24 16:06:39;;;;;;;5.50;2.60;;;;;;;;;;104060;1289;545696;-78
2023/08/24 16:10:16;;;;;;;8.90;3.90;;;;;;;;;;103803;1289;544970;-78
2023/08/24 16:13:53;;;;;;;9.10;4.10;;;;;;;;;;103817;1289;545790;-78
2023/08/24 16:17:31;;;;;;;13.50;5.10;;;;;;;;;;104064;1289;545833;-78
2023/08/24 16:21:08;;;;;;;11.80;4.60;;;;;;;;;;103760;1290;545407;-78
2023/08/24 16:24:46;;;;;;;9.90;3.50;;;;;;;;;;103813;1289;545404;-76
2023/08/24 16:28:24;;;;;;;8.50;3.40;;;;;;;;;;103717;1289;544881;-78
2023/08/24 16:32:01;;;;;;;8.80;4.10;;;;;;;;;;103786;1292;545144;-78
2023/08/24 16:35:39;;;;;;;8.70;3.80;;;;;;;;;;103859;1289;545310;-79
2023/08/24 16:39:21;;;;;;;6.50;3.00;;;;;;;;;;103919;1291;547935;-76
2023/08/24 16:42:59;;;;;;;9.80;3.20;;;;;;;;;;103566;1289;547979;-77
2023/08/24 16:46:31;;;;;;;9.30;3.40;;;;;;;;;;104082;1286;545912;-76
2023/08/24 16:50:14;;;;;;;6.90;2.90;;;;;;;;;;103608;1292;548023;-77
2023/08/24 16:53:51;;;;;;;8.60;3.30;;;;;;;;;;103629;1290;547819;-77
2023/08/24 16:57:29;;;;;;;6.90;2.70;;;;;;;;;;103553;1293;547803;-77
2023/08/24 17:01:07;;;;;;;7.30;3.80;;;;;;;;;;103220;1294;548051;-77
2023/08/24 17:04:44;;;;;;;11.90;4.60;;;;;;;;;;103623;1292;548618;-78
2023/08/24 17:08:21;;;;;;;13.10;6.30;;;;;;;;;;103541;1290;547995;-77
2023/08/24 17:11:53;;;;;;;19.80;8.50;;;;;;;;;;103596;1292;544916;-78
2023/08/24 17:15:31;;;;;;;14.20;6.40;;;;;;;;;;103751;1291;545567;-78
2023/08/24 17:19:10;;;;;;;18.50;8.20;;;;;;;;;;103619;1292;547872;-78
2023/08/24 17:22:45;;;;;;;28.20;13.90;;;;;;;;;;103725;1291;544964;-78
2023/08/24 17:26:25;;;;;;;15.00;7.50;;;;;;;;;;103620;1292;548557;-78
2023/08/24 17:30:02;;;;;;;12.10;5.50;;;;;;;;;;103775;1292;544776;-77
2023/08/24 17:33:38;;;;;;;10.00;3.60;;;;;;;;;;103718;1291;544922;-76
2023/08/24 17:37:15;;;;;;;9.60;3.50;;;;;;;;;;103570;1294;544819;-77
2023/08/24 17:41:02;;;;;;;8.00;3.50;;;;;;;;;;103742;1289;545046;-77
2023/08/24 17:44:30;;;;;;;7.80;3.40;;;;;;;;;;103731;1291;544811;-79
2023/08/24 17:48:08;;;;;;;10.10;2.90;;;;;;;;;;103542;1297;545200;-79
2023/08/24 17:51:45;;;;;;;7.10;3.20;;;;;;;;;;103805;1289;544726;-78
2023/08/24 17:55:28;;;;;;;5.90;2.70;;;;;;;;;;103798;1292;547999;-77
2023/08/24 17:59:00;;;;;;;6.80;2.80;;;;;;;;;;103716;1292;545002;-77
2023/08/24 18:02:41;;;;;;;7.70;3.10;;;;;;;;;;103490;1292;548234;-79
2023/08/24 18:06:21;;;;;;;9.60;2.90;;;;;;;;;;103548;1292;547984;-77
2023/08/24 18:09:52;;;;;;;8.50;3.50;;;;;;;;;;103638;1289;544810;-78
2023/08/24 18:13:33;;;;;;;8.20;3.50;;;;;;;;;;103717;1292;545063;-79
2023/08/24 18:17:08;;;;;;;10.30;3.50;;;;;;;;;;103663;1291;545297;-79
2023/08/24 18:20:50;;;;;;;10.30;2.80;;;;;;;;;;103565;1293;548344;-77
2023/08/24 18:24:28;;;;;;;8.50;3.00;;;;;;;;;;103952;1288;547979;-79
2023/08/24 18:28:00;;;;;;;12.60;3.80;;;;;;;;;;103828;1295;544975;-77
2023/08/24 18:31:43;;;;;;;12.50;4.10;;;;;;;;;;103591;1292;548040;-79
2023/08/24 18:35:20;;;;;;;15.50;5.10;;;;;;;;;;103547;1293;547981;-78
2023/08/24 18:38:58;;;;;;;14.90;5.90;;;;;;;;;;103309;1294;547929;-78
2023/08/24 18:42:36;;;;;;;12.90;5.30;;;;;;;;;;103609;1292;548148;-79
2023/08/24 18:46:13;;;;;;;14.70;4.80;;;;;;;;;;103536;1291;547978;-78
2023/08/24 18:49:50;;;;;;;17.10;4.60;;;;;;;;;;103595;1289;548164;-79
2023/08/24 18:53:28;;;;;;;15.60;4.50;;;;;;;;;;103894;1292;547758;-79
2023/08/24 18:56:59;;;;;;;16.20;4.30;;;;;;;;;;103863;1291;544786;-78
2023/08/24 19:00:37;;;;;;;13.90;4.10;;;;;;;;;;103788;1291;546231;-79
2023/08/24 19:04:20;;;;;;;10.60;3.50;;;;;;;;;;103222;1297;548212;-79
2023/08/24 19:07:58;;;;;;;11.30;4.00;;;;;;;;;;104257;1285;547792;-79
2023/08/24 19:11:35;;;;;;;9.20;3.80;;;;;;;;;;103625;1295;548130;-79
2023/08/24 19:15:07;;;;;;;9.70;3.90;;;;;;;;;;103865;1292;546177;-79
2023/08/24 19:18:50;;;;;;;8.40;3.90;;;;;;;;;;103619;1291;547926;-79
2023/08/24 19:22:28;;;;;;;11.40;3.90;;;;;;;;;;103439;1293;547767;-79
2023/08/24 19:26:05;;;;;;;14.80;4.30;;;;;;;;;;103303;1297;547992;-78
2023/08/24 19:29:37;;;;;;;12.20;3.90;;;;;;;;;;103828;1290;545105;-79
2023/08/24 19:33:20;;;;;;;9.10;3.40;;;;;;;;;;103569;1289;547765;-79
2023/08/24 19:36:52;;;;;;;10.90;4.20;;;;;;;;;;103741;1289;544819;-79
2023/08/24 19:40:29;;;;;;;8.20;4.00;;;;;;;;;;103767;1289;545481;-79
2023/08/24 19:44:12;;;;;;;11.50;4.40;;;;;;;;;;103485;1291;548090;-79
2023/08/24 19:47:50;;;;;;;14.90;4.70;;;;;;;;;;103430;1292;547806;-79
2023/08/24 19:51:24;;;;;;;10.90;3.90;;;;;;;;;;103303;1296;548147;-79
2023/08/24 19:55:01;;;;;;;8.70;4.20;;;;;;;;;;103579;1291;547941;-79
2023/08/24 19:58:43;;;;;;;11.30;4.20;;;;;;;;;;103477;1292;545479;-79
2023/08/24 20:02:19;;;;;;;8.20;4.40;;;;;;;;;;103664;1295;547964;-79
2023/08/24 20:05:57;;;;;;;9.80;4.40;;;;;;;;;;103406;1295;549127;-79
2023/08/24 20:09:29;;;;;;;10.60;4.30;;;;;;;;;;104542;1283;545356;-79
2023/08/24 20:13:12;;;;;;;10.80;5.00;;;;;;;;;;103234;1294;548018;-79
2023/08/24 20:16:50;;;;;;;10.50;4.80;;;;;;;;;;103899;1294;547955;-79
2023/08/24 20:20:27;;;;;;;12.00;5.10;;;;;;;;;;103424;1293;548044;-78
2023/08/24 20:24:04;;;;;;;10.30;4.90;;;;;;;;;;103627;1292;547895;-79
2023/08/24 20:27:37;;;;;;;10.60;4.40;;;;;;;;;;103746;1291;545331;-79
2023/08/24 20:31:19;;;;;;;8.00;4.20;;;;;;;;;;103494;1292;547992;-80
2023/08/24 20:34:57;;;;;;;9.60;4.50;;;;;;;;;;103522;1295;547776;-79
2023/08/24 20:38:34;;;;;;;13.10;5.50;;;;;;;;;;103586;1290;548162;-79
2023/08/24 20:42:16;;;;;;;9.90;4.50;;;;;;;;;;103560;1292;547946;-79
2023/08/24 20:45:49;;;;;;;11.30;4.70;;;;;;;;;;103285;1301;548027;-79
2023/08/24 20:49:26;;;;;;;11.40;4.90;;;;;;;;;;103674;1291;548016;-79
2023/08/24 20:53:06;;;;;;;9.60;4.20;;;;;;;;;;103459;1294;547951;-79
2023/08/24 20:56:41;;;;;;;8.70;4.80;;;;;;;;;;103647;1289;545211;-79